sensor_id;sensor_type;location;lat;lon;timestamp;P1;durP1;ratioP1;P2;durP2;ratioP2
22230;SDS011;11284;48.086;-1.652;2024-02-14T00:02:11;6.03;;;1.38;;
22230;SDS011;11284;48.086;-1.652;2024-02-14T00:04:37;5.22;;;1.42;;
22230;SDS011;11284;48.086;-1.652;2024-02-14T00:07:04;6.38;;;1.50;;
22230;SDS011;11284;48.086;-1.652;2024-02-14T00:09:30;9.52;;;1.55;;
22230;SDS011;11284;48.086;-1.652;2024-02-14T00:11:56;6.35;;;1.50;;
22230;SDS011;11284;48.086;-1.652;2024-02-14T00:14:22;7.28;;;1.60;;
22230;SDS011;11284;48.086;-1.652;2024-02-14T00:16:49;6.85;;;1.50;;
22230;SDS011;11284;48.086;-1.652;2024-02-14T00:19:16;4.70;;;1.23;;
22230;SDS011;11284;48.086;-1.652;2024-02-14T00:21:42;7.47;;;1.38;;
22230;SDS011;11284;48.086;-1.652;2024-02-14T00:24:08;7.05;;;1.50;;
22230;SDS011;11284;48.086;-1.652;2024-02-14T00:26:34;8.85;;;2.13;;
22230;SDS011;11284;48.086;-1.652;2024-02-14T00:29:00;5.18;;;1.58;;
22230;SDS011;11284;48.086;-1.652;2024-02-14T00:31:27;7.53;;;1.55;;
22230;SDS011;11284;48.086;-1.652;2024-02-14T00:33:53;7.18;;;1.83;;
22230;SDS011;11284;48.086;-1.652;2024-02-14T00:36:19;9.43;;;1.88;;
22230;SDS011;11284;48.086;-1.652;2024-02-14T00:38:45;5.63;;;1.55;;
22230;SDS011;11284;48.086;-1.652;2024-02-14T00:41:11;6.32;;;1.85;;
22230;SDS011;11284;48.086;-1.652;2024-02-14T00:43:37;5.93;;;2.00;;
22230;SDS011;11284;48.086;-1.652;2024-02-14T00:46:03;5.72;;;1.92;;
22230;SDS011;11284;48.086;-1.652;2024-02-14T00:48:30;8.38;;;2.22;;
22230;SDS011;11284;48.086;-1.652;2024-02-14T00:50:57;8.38;;;2.10;;
22230;SDS011;11284;48.086;-1.652;2024-02-14T00:53:24;8.05;;;1.70;;
22230;SDS011;11284;48.086;-1.652;2024-02-14T00:55:50;9.85;;;1.80;;
22230;SDS011;11284;48.086;-1.652;2024-02-14T00:58:16;9.02;;;1.80;;
22230;SDS011;11284;48.086;-1.652;2024-02-14T01:00:42;10.60;;;2.15;;
22230;SDS011;11284;48.086;-1.652;2024-02-14T01:03:08;8.18;;;1.55;;
22230;SDS011;11284;48.086;-1.652;2024-02-14T01:05:37;8.20;;;1.67;;
22230;SDS011;11284;48.086;-1.652;2024-02-14T01:08:04;9.73;;;2.20;;
22230;SDS011;11284;48.086;-1.652;2024-02-14T01:10:30;9.98;;;2.10;;
22230;SDS011;11284;48.086;-1.652;2024-02-14T01:12:56;8.43;;;1.98;;
22230;SDS011;11284;48.086;-1.652;2024-02-14T01:15:22;8.82;;;1.90;;
22230;SDS011;11284;48.086;-1.652;2024-02-14T01:17:48;8.95;;;2.20;;
22230;SDS011;11284;48.086;-1.652;2024-02-14T01:20:14;13.07;;;2.40;;
22230;SDS011;11284;48.086;-1.652;2024-02-14T01:22:40;15.18;;;3.05;;
22230;SDS011;11284;48.086;-1.652;2024-02-14T01:25:06;12.45;;;2.72;;
22230;SDS011;11284;48.086;-1.652;2024-02-14T01:27:32;11.73;;;2.72;;
22230;SDS011;11284;48.086;-1.652;2024-02-14T01:29:58;12.98;;;2.95;;
22230;SDS011;11284;48.086;-1.652;2024-02-14T01:32:24;14.60;;;2.67;;
22230;SDS011;11284;48.086;-1.652;2024-02-14T01:34:53;15.57;;;3.08;;
22230;SDS011;11284;48.086;-1.652;2024-02-14T01:37:19;17.52;;;3.33;;
22230;SDS011;11284;48.086;-1.652;2024-02-14T01:39:46;14.63;;;3.15;;
22230;SDS011;11284;48.086;-1.652;2024-02-14T01:42:12;15.77;;;3.10;;
22230;SDS011;11284;48.086;-1.652;2024-02-14T01:44:38;15.80;;;3.10;;
22230;SDS011;11284;48.086;-1.652;2024-02-14T01:47:04;14.32;;;3.17;;
22230;SDS011;11284;48.086;-1.652;2024-02-14T01:49:31;16.02;;;3.20;;
22230;SDS011;11284;48.086;-1.652;2024-02-14T01:51:59;17.80;;;3.80;;
22230;SDS011;11284;48.086;-1.652;2024-02-14T01:54:26;16.90;;;4.05;;
22230;SDS011;11284;48.086;-1.652;2024-02-14T01:56:53;18.90;;;2.97;;
22230;SDS011;11284;48.086;-1.652;2024-02-14T01:59:20;16.73;;;3.33;;
22230;SDS011;11284;48.086;-1.652;2024-02-14T02:01:46;15.88;;;3.67;;
22230;SDS011;11284;48.086;-1.652;2024-02-14T02:04:12;16.15;;;3.33;;
22230;SDS011;11284;48.086;-1.652;2024-02-14T02:06:38;18.33;;;3.72;;
22230;SDS011;11284;48.086;-1.652;2024-02-14T02:09:06;20.25;;;3.47;;
22230;SDS011;11284;48.086;-1.652;2024-02-14T02:11:42;21.27;;;3.72;;
22230;SDS011;11284;48.086;-1.652;2024-02-14T02:14:08;18.40;;;3.40;;
22230;SDS011;11284;48.086;-1.652;2024-02-14T02:16:34;18.35;;;4.28;;
22230;SDS011;11284;48.086;-1.652;2024-02-14T02:19:00;15.15;;;3.40;;
22230;SDS011;11284;48.086;-1.652;2024-02-14T02:21:26;18.90;;;3.67;;
22230;SDS011;11284;48.086;-1.652;2024-02-14T02:23:52;16.50;;;3.83;;
22230;SDS011;11284;48.086;-1.652;2024-02-14T02:26:18;19.27;;;4.35;;
22230;SDS011;11284;48.086;-1.652;2024-02-14T02:28:44;19.80;;;4.13;;
22230;SDS011;11284;48.086;-1.652;2024-02-14T02:31:10;23.65;;;4.03;;
22230;SDS011;11284;48.086;-1.652;2024-02-14T02:33:36;24.83;;;4.25;;
22230;SDS011;11284;48.086;-1.652;2024-02-14T02:36:02;21.60;;;4.07;;
22230;SDS011;11284;48.086;-1.652;2024-02-14T02:38:28;25.27;;;4.10;;
22230;SDS011;11284;48.086;-1.652;2024-02-14T02:40:54;19.73;;;4.18;;
22230;SDS011;11284;48.086;-1.652;2024-02-14T02:43:21;20.23;;;3.90;;
22230;SDS011;11284;48.086;-1.652;2024-02-14T02:45:47;23.30;;;4.20;;
22230;SDS011;11284;48.086;-1.652;2024-02-14T02:48:13;20.02;;;4.13;;
22230;SDS011;11284;48.086;-1.652;2024-02-14T02:50:39;21.30;;;4.47;;
22230;SDS011;11284;48.086;-1.652;2024-02-14T02:53:05;18.20;;;3.92;;
22230;SDS011;11284;48.086;-1.652;2024-02-14T02:55:31;21.52;;;3.72;;
22230;SDS011;11284;48.086;-1.652;2024-02-14T02:57:57;27.60;;;4.28;;
22230;SDS011;11284;48.086;-1.652;2024-02-14T03:00:24;20.90;;;3.97;;
22230;SDS011;11284;48.086;-1.652;2024-02-14T03:02:50;23.35;;;4.68;;
22230;SDS011;11284;48.086;-1.652;2024-02-14T03:05:16;21.38;;;4.25;;
22230;SDS011;11284;48.086;-1.652;2024-02-14T03:07:48;17.05;;;3.42;;
22230;SDS011;11284;48.086;-1.652;2024-02-14T03:10:15;18.67;;;4.07;;
22230;SDS011;11284;48.086;-1.652;2024-02-14T03:12:48;18.30;;;3.47;;
22230;SDS011;11284;48.086;-1.652;2024-02-14T03:15:15;19.90;;;3.35;;
22230;SDS011;11284;48.086;-1.652;2024-02-14T03:17:41;22.77;;;3.88;;
22230;SDS011;11284;48.086;-1.652;2024-02-14T03:20:10;16.88;;;3.42;;
22230;SDS011;11284;48.086;-1.652;2024-02-14T03:22:39;15.00;;;3.03;;
22230;SDS011;11284;48.086;-1.652;2024-02-14T03:25:11;17.20;;;3.03;;
22230;SDS011;11284;48.086;-1.652;2024-02-14T03:27:37;17.58;;;3.70;;
22230;SDS011;11284;48.086;-1.652;2024-02-14T03:30:05;19.02;;;2.95;;
22230;SDS011;11284;48.086;-1.652;2024-02-14T03:32:31;17.38;;;3.33;;
22230;SDS011;11284;48.086;-1.652;2024-02-14T03:34:58;24.90;;;3.75;;
22230;SDS011;11284;48.086;-1.652;2024-02-14T03:37:25;14.10;;;2.90;;
22230;SDS011;11284;48.086;-1.652;2024-02-14T03:39:51;16.77;;;3.70;;
22230;SDS011;11284;48.086;-1.652;2024-02-14T03:42:17;17.33;;;3.63;;
22230;SDS011;11284;48.086;-1.652;2024-02-14T03:44:44;18.50;;;3.35;;
22230;SDS011;11284;48.086;-1.652;2024-02-14T03:47:11;15.27;;;2.95;;
22230;SDS011;11284;48.086;-1.652;2024-02-14T03:49:38;15.35;;;2.85;;
22230;SDS011;11284;48.086;-1.652;2024-02-14T03:52:05;21.25;;;2.75;;
22230;SDS011;11284;48.086;-1.652;2024-02-14T03:54:35;15.73;;;2.80;;
22230;SDS011;11284;48.086;-1.652;2024-02-14T03:57:01;13.52;;;2.88;;
22230;SDS011;11284;48.086;-1.652;2024-02-14T03:59:29;18.30;;;3.05;;
22230;SDS011;11284;48.086;-1.652;2024-02-14T04:01:55;14.73;;;3.22;;
22230;SDS011;11284;48.086;-1.652;2024-02-14T04:04:23;15.07;;;2.53;;
22230;SDS011;11284;48.086;-1.652;2024-02-14T04:06:49;11.65;;;2.63;;
22230;SDS011;11284;48.086;-1.652;2024-02-14T04:09:15;11.82;;;2.15;;
22230;SDS011;11284;48.086;-1.652;2024-02-14T04:11:41;19.73;;;2.60;;
22230;SDS011;11284;48.086;-1.652;2024-02-14T04:14:07;15.63;;;3.10;;
22230;SDS011;11284;48.086;-1.652;2024-02-14T04:16:33;17.05;;;3.05;;
22230;SDS011;11284;48.086;-1.652;2024-02-14T04:18:59;19.05;;;3.15;;
22230;SDS011;11284;48.086;-1.652;2024-02-14T04:21:25;12.65;;;2.47;;
22230;SDS011;11284;48.086;-1.652;2024-02-14T04:23:51;15.40;;;2.95;;
22230;SDS011;11284;48.086;-1.652;2024-02-14T04:26:20;14.10;;;2.75;;
22230;SDS011;11284;48.086;-1.652;2024-02-14T04:28:46;12.48;;;2.25;;
22230;SDS011;11284;48.086;-1.652;2024-02-14T04:31:12;10.20;;;2.05;;
22230;SDS011;11284;48.086;-1.652;2024-02-14T04:33:38;13.23;;;2.63;;
22230;SDS011;11284;48.086;-1.652;2024-02-14T04:36:05;8.65;;;2.30;;
22230;SDS011;11284;48.086;-1.652;2024-02-14T04:38:31;14.77;;;2.28;;
22230;SDS011;11284;48.086;-1.652;2024-02-14T04:40:57;12.60;;;2.45;;
22230;SDS011;11284;48.086;-1.652;2024-02-14T04:43:24;13.00;;;2.20;;
22230;SDS011;11284;48.086;-1.652;2024-02-14T04:45:50;12.00;;;1.95;;
22230;SDS011;11284;48.086;-1.652;2024-02-14T04:48:16;14.25;;;2.50;;
22230;SDS011;11284;48.086;-1.652;2024-02-14T04:50:42;13.50;;;2.63;;
22230;SDS011;11284;48.086;-1.652;2024-02-14T04:53:08;9.75;;;2.10;;
22230;SDS011;11284;48.086;-1.652;2024-02-14T04:55:34;13.73;;;1.98;;
22230;SDS011;11284;48.086;-1.652;2024-02-14T04:58:01;13.63;;;2.78;;
22230;SDS011;11284;48.086;-1.652;2024-02-14T05:00:27;11.95;;;2.20;;
22230;SDS011;11284;48.086;-1.652;2024-02-14T05:02:53;10.45;;;2.67;;
22230;SDS011;11284;48.086;-1.652;2024-02-14T05:05:19;11.73;;;2.35;;
22230;SDS011;11284;48.086;-1.652;2024-02-14T05:07:45;15.73;;;2.42;;
22230;SDS011;11284;48.086;-1.652;2024-02-14T05:10:12;13.82;;;2.38;;
22230;SDS011;11284;48.086;-1.652;2024-02-14T05:12:39;12.18;;;2.47;;
22230;SDS011;11284;48.086;-1.652;2024-02-14T05:15:05;13.15;;;2.63;;
22230;SDS011;11284;48.086;-1.652;2024-02-14T05:17:31;13.75;;;2.25;;
22230;SDS011;11284;48.086;-1.652;2024-02-14T05:19:57;12.02;;;2.65;;
22230;SDS011;11284;48.086;-1.652;2024-02-14T05:22:23;11.90;;;2.53;;
22230;SDS011;11284;48.086;-1.652;2024-02-14T05:24:49;13.48;;;2.72;;
22230;SDS011;11284;48.086;-1.652;2024-02-14T05:27:15;13.63;;;2.10;;
22230;SDS011;11284;48.086;-1.652;2024-02-14T05:29:41;16.40;;;3.13;;
22230;SDS011;11284;48.086;-1.652;2024-02-14T05:32:07;15.52;;;2.80;;
22230;SDS011;11284;48.086;-1.652;2024-02-14T05:34:34;13.90;;;2.63;;
22230;SDS011;11284;48.086;-1.652;2024-02-14T05:37:00;17.15;;;2.80;;
22230;SDS011;11284;48.086;-1.652;2024-02-14T05:39:26;16.90;;;2.75;;
22230;SDS011;11284;48.086;-1.652;2024-02-14T05:41:52;15.45;;;2.78;;
22230;SDS011;11284;48.086;-1.652;2024-02-14T05:44:19;15.85;;;3.55;;
22230;SDS011;11284;48.086;-1.652;2024-02-14T05:46:47;11.75;;;2.97;;
22230;SDS011;11284;48.086;-1.652;2024-02-14T05:49:13;14.95;;;3.20;;
22230;SDS011;11284;48.086;-1.652;2024-02-14T05:51:39;16.13;;;2.83;;
22230;SDS011;11284;48.086;-1.652;2024-02-14T05:54:06;14.98;;;2.80;;
22230;SDS011;11284;48.086;-1.652;2024-02-14T05:56:32;15.95;;;2.90;;
22230;SDS011;11284;48.086;-1.652;2024-02-14T05:58:57;14.30;;;3.13;;
22230;SDS011;11284;48.086;-1.652;2024-02-14T06:01:23;20.45;;;3.92;;
22230;SDS011;11284;48.086;-1.652;2024-02-14T06:03:49;16.58;;;3.10;;
22230;SDS011;11284;48.086;-1.652;2024-02-14T06:06:15;17.42;;;3.08;;
22230;SDS011;11284;48.086;-1.652;2024-02-14T06:08:41;19.95;;;3.30;;
22230;SDS011;11284;48.086;-1.652;2024-02-14T06:11:08;15.15;;;3.13;;
22230;SDS011;11284;48.086;-1.652;2024-02-14T06:13:34;14.52;;;3.13;;
22230;SDS011;11284;48.086;-1.652;2024-02-14T06:16:03;18.25;;;3.88;;
22230;SDS011;11284;48.086;-1.652;2024-02-14T06:18:29;15.15;;;2.72;;
22230;SDS011;11284;48.086;-1.652;2024-02-14T06:20:55;15.88;;;3.42;;
22230;SDS011;11284;48.086;-1.652;2024-02-14T06:23:21;15.75;;;2.78;;
22230;SDS011;11284;48.086;-1.652;2024-02-14T06:25:47;13.60;;;2.67;;
22230;SDS011;11284;48.086;-1.652;2024-02-14T06:28:13;20.58;;;3.70;;
22230;SDS011;11284;48.086;-1.652;2024-02-14T06:30:39;19.63;;;3.47;;
22230;SDS011;11284;48.086;-1.652;2024-02-14T06:33:05;18.20;;;3.15;;
22230;SDS011;11284;48.086;-1.652;2024-02-14T06:35:31;17.65;;;3.30;;
22230;SDS011;11284;48.086;-1.652;2024-02-14T06:37:57;13.90;;;3.00;;
22230;SDS011;11284;48.086;-1.652;2024-02-14T06:40:23;18.83;;;3.60;;
22230;SDS011;11284;48.086;-1.652;2024-02-14T06:42:49;19.15;;;3.53;;
22230;SDS011;11284;48.086;-1.652;2024-02-14T06:45:16;19.60;;;3.38;;
22230;SDS011;11284;48.086;-1.652;2024-02-14T06:47:42;15.82;;;3.50;;
22230;SDS011;11284;48.086;-1.652;2024-02-14T06:50:08;16.73;;;3.20;;
22230;SDS011;11284;48.086;-1.652;2024-02-14T06:52:34;21.02;;;3.70;;
22230;SDS011;11284;48.086;-1.652;2024-02-14T06:55:00;19.92;;;3.88;;
22230;SDS011;11284;48.086;-1.652;2024-02-14T06:57:28;17.30;;;3.65;;
22230;SDS011;11284;48.086;-1.652;2024-02-14T06:59:54;18.65;;;3.65;;
22230;SDS011;11284;48.086;-1.652;2024-02-14T07:02:20;16.80;;;3.15;;
22230;SDS011;11284;48.086;-1.652;2024-02-14T07:04:46;20.63;;;3.40;;
22230;SDS011;11284;48.086;-1.652;2024-02-14T07:07:12;18.35;;;3.50;;
22230;SDS011;11284;48.086;-1.652;2024-02-14T07:09:38;20.70;;;3.22;;
22230;SDS011;11284;48.086;-1.652;2024-02-14T07:12:04;18.80;;;4.00;;
22230;SDS011;11284;48.086;-1.652;2024-02-14T07:14:31;13.98;;;3.33;;
22230;SDS011;11284;48.086;-1.652;2024-02-14T07:16:57;16.50;;;3.60;;
22230;SDS011;11284;48.086;-1.652;2024-02-14T07:19:23;17.80;;;3.38;;
22230;SDS011;11284;48.086;-1.652;2024-02-14T07:21:49;16.77;;;3.35;;
22230;SDS011;11284;48.086;-1.652;2024-02-14T07:24:15;24.45;;;4.13;;
22230;SDS011;11284;48.086;-1.652;2024-02-14T07:26:41;19.75;;;3.42;;
22230;SDS011;11284;48.086;-1.652;2024-02-14T07:29:09;18.98;;;3.67;;
22230;SDS011;11284;48.086;-1.652;2024-02-14T07:31:35;18.15;;;3.58;;
22230;SDS011;11284;48.086;-1.652;2024-02-14T07:34:01;21.83;;;3.53;;
22230;SDS011;11284;48.086;-1.652;2024-02-14T07:36:28;15.00;;;3.70;;
22230;SDS011;11284;48.086;-1.652;2024-02-14T07:38:54;17.20;;;2.67;;
22230;SDS011;11284;48.086;-1.652;2024-02-14T07:41:20;12.80;;;3.67;;
22230;SDS011;11284;48.086;-1.652;2024-02-14T07:43:46;16.58;;;3.25;;
22230;SDS011;11284;48.086;-1.652;2024-02-14T07:46:16;14.73;;;3.33;;
22230;SDS011;11284;48.086;-1.652;2024-02-14T07:48:42;14.70;;;3.45;;
22230;SDS011;11284;48.086;-1.652;2024-02-14T07:51:09;18.67;;;6.22;;
22230;SDS011;11284;48.086;-1.652;2024-02-14T07:53:35;21.23;;;10.13;;
22230;SDS011;11284;48.086;-1.652;2024-02-14T07:56:01;21.08;;;8.50;;
22230;SDS011;11284;48.086;-1.652;2024-02-14T07:58:27;18.70;;;4.13;;
22230;SDS011;11284;48.086;-1.652;2024-02-14T08:00:53;15.23;;;3.85;;
22230;SDS011;11284;48.086;-1.652;2024-02-14T08:03:20;13.27;;;2.97;;
22230;SDS011;11284;48.086;-1.652;2024-02-14T08:05:46;16.00;;;3.53;;
22230;SDS011;11284;48.086;-1.652;2024-02-14T08:08:12;14.45;;;4.15;;
22230;SDS011;11284;48.086;-1.652;2024-02-14T08:10:38;20.55;;;4.15;;
22230;SDS011;11284;48.086;-1.652;2024-02-14T08:13:04;13.95;;;2.90;;
22230;SDS011;11284;48.086;-1.652;2024-02-14T08:15:30;14.25;;;3.63;;
22230;SDS011;11284;48.086;-1.652;2024-02-14T08:17:56;16.17;;;3.10;;
22230;SDS011;11284;48.086;-1.652;2024-02-14T08:20:24;21.98;;;9.27;;
22230;SDS011;11284;48.086;-1.652;2024-02-14T08:22:50;25.98;;;6.10;;
22230;SDS011;11284;48.086;-1.652;2024-02-14T08:25:16;14.68;;;3.35;;
22230;SDS011;11284;48.086;-1.652;2024-02-14T08:27:42;19.67;;;4.75;;
22230;SDS011;11284;48.086;-1.652;2024-02-14T08:30:08;16.98;;;3.60;;
22230;SDS011;11284;48.086;-1.652;2024-02-14T08:32:34;18.90;;;4.32;;
22230;SDS011;11284;48.086;-1.652;2024-02-14T08:35:00;19.55;;;3.45;;
22230;SDS011;11284;48.086;-1.652;2024-02-14T08:37:27;14.93;;;4.82;;
22230;SDS011;11284;48.086;-1.652;2024-02-14T08:39:53;15.90;;;3.63;;
22230;SDS011;11284;48.086;-1.652;2024-02-14T08:42:19;18.60;;;3.60;;
22230;SDS011;11284;48.086;-1.652;2024-02-14T08:44:45;15.98;;;5.60;;
22230;SDS011;11284;48.086;-1.652;2024-02-14T08:47:11;17.80;;;3.95;;
22230;SDS011;11284;48.086;-1.652;2024-02-14T08:49:40;13.10;;;2.63;;
22230;SDS011;11284;48.086;-1.652;2024-02-14T08:52:07;11.57;;;2.95;;
22230;SDS011;11284;48.086;-1.652;2024-02-14T08:54:33;16.55;;;3.60;;
22230;SDS011;11284;48.086;-1.652;2024-02-14T08:56:59;17.90;;;4.05;;
22230;SDS011;11284;48.086;-1.652;2024-02-14T08:59:25;25.20;;;9.85;;
22230;SDS011;11284;48.086;-1.652;2024-02-14T09:01:51;19.48;;;6.50;;
22230;SDS011;11284;48.086;-1.652;2024-02-14T09:04:17;13.20;;;3.60;;
22230;SDS011;11284;48.086;-1.652;2024-02-14T09:06:43;19.92;;;4.93;;
22230;SDS011;11284;48.086;-1.652;2024-02-14T09:09:10;15.75;;;4.13;;
22230;SDS011;11284;48.086;-1.652;2024-02-14T09:11:36;15.13;;;3.45;;
22230;SDS011;11284;48.086;-1.652;2024-02-14T09:14:02;28.83;;;7.72;;
22230;SDS011;11284;48.086;-1.652;2024-02-14T09:16:31;15.30;;;4.38;;
22230;SDS011;11284;48.086;-1.652;2024-02-14T09:18:58;16.38;;;3.53;;
22230;SDS011;11284;48.086;-1.652;2024-02-14T09:21:24;16.70;;;3.20;;
22230;SDS011;11284;48.086;-1.652;2024-02-14T09:23:50;13.85;;;3.03;;
22230;SDS011;11284;48.086;-1.652;2024-02-14T09:26:16;14.20;;;3.13;;
22230;SDS011;11284;48.086;-1.652;2024-02-14T09:28:43;17.00;;;4.18;;
22230;SDS011;11284;48.086;-1.652;2024-02-14T09:31:09;14.82;;;3.28;;
22230;SDS011;11284;48.086;-1.652;2024-02-14T09:33:36;13.45;;;2.90;;
22230;SDS011;11284;48.086;-1.652;2024-02-14T09:36:02;18.05;;;3.75;;
22230;SDS011;11284;48.086;-1.652;2024-02-14T09:38:29;15.65;;;3.60;;
22230;SDS011;11284;48.086;-1.652;2024-02-14T09:40:56;18.15;;;3.38;;
22230;SDS011;11284;48.086;-1.652;2024-02-14T09:43:37;14.40;;;3.22;;
22230;SDS011;11284;48.086;-1.652;2024-02-14T09:46:06;16.80;;;3.58;;
22230;SDS011;11284;48.086;-1.652;2024-02-14T09:48:32;15.73;;;3.20;;
22230;SDS011;11284;48.086;-1.652;2024-02-14T09:50:59;20.65;;;3.20;;
22230;SDS011;11284;48.086;-1.652;2024-02-14T09:53:25;14.73;;;3.30;;
22230;SDS011;11284;48.086;-1.652;2024-02-14T09:55:51;15.27;;;3.38;;
22230;SDS011;11284;48.086;-1.652;2024-02-14T09:58:18;15.23;;;2.97;;
22230;SDS011;11284;48.086;-1.652;2024-02-14T10:00:44;12.20;;;2.88;;
22230;SDS011;11284;48.086;-1.652;2024-02-14T10:03:10;20.23;;;4.60;;
22230;SDS011;11284;48.086;-1.652;2024-02-14T10:05:36;14.82;;;3.63;;
22230;SDS011;11284;48.086;-1.652;2024-02-14T10:08:02;16.25;;;3.85;;
22230;SDS011;11284;48.086;-1.652;2024-02-14T10:10:29;13.27;;;2.92;;
22230;SDS011;11284;48.086;-1.652;2024-02-14T10:12:55;17.10;;;4.80;;
22230;SDS011;11284;48.086;-1.652;2024-02-14T10:15:21;19.38;;;4.40;;
22230;SDS011;11284;48.086;-1.652;2024-02-14T10:17:47;15.80;;;3.40;;
22230;SDS011;11284;48.086;-1.652;2024-02-14T10:20:16;12.27;;;3.00;;
22230;SDS011;11284;48.086;-1.652;2024-02-14T10:22:42;17.20;;;3.58;;
22230;SDS011;11284;48.086;-1.652;2024-02-14T10:25:09;16.33;;;3.10;;
22230;SDS011;11284;48.086;-1.652;2024-02-14T10:27:38;17.23;;;2.60;;
22230;SDS011;11284;48.086;-1.652;2024-02-14T10:30:05;15.07;;;3.10;;
22230;SDS011;11284;48.086;-1.652;2024-02-14T10:32:39;15.68;;;3.10;;
22230;SDS011;11284;48.086;-1.652;2024-02-14T10:35:13;16.77;;;3.53;;
22230;SDS011;11284;48.086;-1.652;2024-02-14T10:37:40;13.27;;;3.20;;
22230;SDS011;11284;48.086;-1.652;2024-02-14T10:40:06;12.43;;;2.92;;
22230;SDS011;11284;48.086;-1.652;2024-02-14T10:42:33;12.63;;;2.95;;
22230;SDS011;11284;48.086;-1.652;2024-02-14T10:45:00;14.07;;;4.97;;
22230;SDS011;11284;48.086;-1.652;2024-02-14T10:47:36;22.48;;;6.53;;
22230;SDS011;11284;48.086;-1.652;2024-02-14T10:50:05;16.58;;;3.10;;
22230;SDS011;11284;48.086;-1.652;2024-02-14T10:52:32;17.83;;;3.50;;
22230;SDS011;11284;48.086;-1.652;2024-02-14T10:54:58;19.42;;;4.45;;
22230;SDS011;11284;48.086;-1.652;2024-02-14T10:57:25;15.20;;;3.65;;
22230;SDS011;11284;48.086;-1.652;2024-02-14T10:59:51;16.15;;;3.63;;
22230;SDS011;11284;48.086;-1.652;2024-02-14T11:02:18;14.57;;;3.22;;
22230;SDS011;11284;48.086;-1.652;2024-02-14T11:04:45;17.25;;;2.85;;
22230;SDS011;11284;48.086;-1.652;2024-02-14T11:07:11;16.25;;;4.10;;
22230;SDS011;11284;48.086;-1.652;2024-02-14T11:09:40;14.48;;;5.43;;
22230;SDS011;11284;48.086;-1.652;2024-02-14T11:12:06;18.88;;;7.70;;
22230;SDS011;11284;48.086;-1.652;2024-02-14T11:14:34;16.80;;;5.18;;
22230;SDS011;11284;48.086;-1.652;2024-02-14T11:17:09;16.50;;;4.63;;
22230;SDS011;11284;48.086;-1.652;2024-02-14T11:19:35;16.20;;;3.13;;
22230;SDS011;11284;48.086;-1.652;2024-02-14T11:22:11;13.63;;;3.03;;
22230;SDS011;11284;48.086;-1.652;2024-02-14T11:24:41;13.40;;;3.72;;
22230;SDS011;11284;48.086;-1.652;2024-02-14T11:27:10;15.95;;;3.45;;
22230;SDS011;11284;48.086;-1.652;2024-02-14T11:29:38;11.98;;;3.10;;
22230;SDS011;11284;48.086;-1.652;2024-02-14T11:32:05;14.43;;;3.17;;
22230;SDS011;11284;48.086;-1.652;2024-02-14T11:34:34;10.80;;;2.80;;
22230;SDS011;11284;48.086;-1.652;2024-02-14T11:37:00;13.98;;;3.47;;
22230;SDS011;11284;48.086;-1.652;2024-02-14T11:39:26;14.45;;;2.85;;
22230;SDS011;11284;48.086;-1.652;2024-02-14T11:41:52;14.68;;;2.90;;
22230;SDS011;11284;48.086;-1.652;2024-02-14T11:44:18;15.50;;;3.17;;
22230;SDS011;11284;48.086;-1.652;2024-02-14T11:46:47;14.40;;;3.38;;
22230;SDS011;11284;48.086;-1.652;2024-02-14T11:49:13;12.55;;;2.92;;
22230;SDS011;11284;48.086;-1.652;2024-02-14T11:51:39;17.95;;;3.30;;
22230;SDS011;11284;48.086;-1.652;2024-02-14T11:54:06;14.55;;;3.10;;
22230;SDS011;11284;48.086;-1.652;2024-02-14T11:56:36;15.68;;;2.72;;
22230;SDS011;11284;48.086;-1.652;2024-02-14T11:59:05;15.02;;;3.50;;
22230;SDS011;11284;48.086;-1.652;2024-02-14T12:01:32;11.45;;;2.45;;
22230;SDS011;11284;48.086;-1.652;2024-02-14T12:03:59;13.77;;;4.68;;
22230;SDS011;11284;48.086;-1.652;2024-02-14T12:06:26;13.90;;;3.17;;
22230;SDS011;11284;48.086;-1.652;2024-02-14T12:08:52;14.00;;;2.88;;
22230;SDS011;11284;48.086;-1.652;2024-02-14T12:11:18;11.52;;;3.00;;
22230;SDS011;11284;48.086;-1.652;2024-02-14T12:13:48;13.27;;;2.50;;
22230;SDS011;11284;48.086;-1.652;2024-02-14T12:16:15;13.27;;;2.85;;
22230;SDS011;11284;48.086;-1.652;2024-02-14T12:18:41;12.30;;;2.92;;
22230;SDS011;11284;48.086;-1.652;2024-02-14T12:21:07;12.15;;;3.30;;
22230;SDS011;11284;48.086;-1.652;2024-02-14T12:23:33;12.50;;;3.00;;
22230;SDS011;11284;48.086;-1.652;2024-02-14T12:26:03;16.15;;;2.83;;
22230;SDS011;11284;48.086;-1.652;2024-02-14T12:28:32;13.23;;;3.17;;
22230;SDS011;11284;48.086;-1.652;2024-02-14T12:30:59;10.93;;;2.80;;
22230;SDS011;11284;48.086;-1.652;2024-02-14T12:33:25;16.65;;;3.63;;
22230;SDS011;11284;48.086;-1.652;2024-02-14T12:35:55;11.52;;;2.47;;
22230;SDS011;11284;48.086;-1.652;2024-02-14T12:38:22;13.25;;;3.05;;
22230;SDS011;11284;48.086;-1.652;2024-02-14T12:40:48;11.98;;;2.35;;
22230;SDS011;11284;48.086;-1.652;2024-02-14T12:43:15;12.38;;;2.20;;
22230;SDS011;11284;48.086;-1.652;2024-02-14T12:45:41;11.43;;;2.30;;
22230;SDS011;11284;48.086;-1.652;2024-02-14T12:48:09;13.73;;;2.95;;
22230;SDS011;11284;48.086;-1.652;2024-02-14T12:50:37;10.18;;;3.15;;
22230;SDS011;11284;48.086;-1.652;2024-02-14T12:53:06;17.23;;;5.07;;
22230;SDS011;11284;48.086;-1.652;2024-02-14T12:55:33;10.75;;;2.50;;
22230;SDS011;11284;48.086;-1.652;2024-02-14T12:57:59;11.73;;;3.67;;
22230;SDS011;11284;48.086;-1.652;2024-02-14T13:00:25;12.27;;;3.00;;
22230;SDS011;11284;48.086;-1.652;2024-02-14T13:02:51;8.95;;;2.30;;
22230;SDS011;11284;48.086;-1.652;2024-02-14T13:05:18;9.45;;;2.20;;
22230;SDS011;11284;48.086;-1.652;2024-02-14T13:07:44;11.77;;;2.78;;
22230;SDS011;11284;48.086;-1.652;2024-02-14T13:10:11;9.73;;;2.35;;
22230;SDS011;11284;48.086;-1.652;2024-02-14T13:12:37;8.90;;;2.30;;
22230;SDS011;11284;48.086;-1.652;2024-02-14T13:15:04;8.95;;;2.10;;
22230;SDS011;11284;48.086;-1.652;2024-02-14T13:17:30;9.18;;;2.45;;
22230;SDS011;11284;48.086;-1.652;2024-02-14T13:19:56;10.50;;;2.47;;
22230;SDS011;11284;48.086;-1.652;2024-02-14T13:22:24;10.10;;;2.15;;
22230;SDS011;11284;48.086;-1.652;2024-02-14T13:24:50;12.73;;;2.30;;
22230;SDS011;11284;48.086;-1.652;2024-02-14T13:27:16;11.93;;;2.50;;
22230;SDS011;11284;48.086;-1.652;2024-02-14T13:29:42;12.48;;;2.53;;
22230;SDS011;11284;48.086;-1.652;2024-02-14T13:32:08;8.65;;;1.80;;
22230;SDS011;11284;48.086;-1.652;2024-02-14T13:34:34;7.82;;;1.70;;
22230;SDS011;11284;48.086;-1.652;2024-02-14T13:37:00;11.00;;;1.90;;
22230;SDS011;11284;48.086;-1.652;2024-02-14T13:39:27;14.13;;;2.20;;
22230;SDS011;11284;48.086;-1.652;2024-02-14T13:41:53;9.52;;;2.38;;
22230;SDS011;11284;48.086;-1.652;2024-02-14T13:44:23;8.73;;;1.83;;
22230;SDS011;11284;48.086;-1.652;2024-02-14T13:46:49;10.02;;;1.85;;
22230;SDS011;11284;48.086;-1.652;2024-02-14T13:49:18;8.48;;;2.33;;
22230;SDS011;11284;48.086;-1.652;2024-02-14T13:51:50;9.82;;;2.20;;
22230;SDS011;11284;48.086;-1.652;2024-02-14T13:54:19;10.90;;;1.75;;
22230;SDS011;11284;48.086;-1.652;2024-02-14T13:56:45;7.57;;;1.63;;
22230;SDS011;11284;48.086;-1.652;2024-02-14T13:59:13;11.82;;;2.25;;
22230;SDS011;11284;48.086;-1.652;2024-02-14T14:01:39;9.40;;;2.50;;
22230;SDS011;11284;48.086;-1.652;2024-02-14T14:04:05;9.65;;;1.90;;
22230;SDS011;11284;48.086;-1.652;2024-02-14T14:06:31;10.38;;;1.88;;
22230;SDS011;11284;48.086;-1.652;2024-02-14T14:08:57;10.48;;;2.13;;
22230;SDS011;11284;48.086;-1.652;2024-02-14T14:11:33;9.98;;;3.60;;
22230;SDS011;11284;48.086;-1.652;2024-02-14T14:13:59;9.45;;;1.88;;
22230;SDS011;11284;48.086;-1.652;2024-02-14T14:16:26;9.15;;;1.80;;
22230;SDS011;11284;48.086;-1.652;2024-02-14T14:18:52;9.80;;;1.92;;
22230;SDS011;11284;48.086;-1.652;2024-02-14T14:21:18;9.95;;;2.30;;